SBYS

Campo Fontenelle Airport

Pirassununga, Brazil
TAF SBYS 171600Z 1718/1806 35008KT 9999 SCT040 FEW045TCU TX26/1718Z TN20/1805Z BECMG 1718/1720 TS SCT036 FEW045CB BECMG 1721/1723 18007KT 8000 TSRA SCT032 FEW040CB BECMG 1800/1802 9999 NSW FEW040 BECMG 1803/1805 01005KT CAVOK RMK PDL
Issued Valid From Valid To
Oct-17 @ 16:00 UTC
(4 hours ago)
Oct-17 @ 18:00 UTC
(2 hours ago)
Oct-18 @ 06:00 UTC
(in 10 hours)
Oct-17 @ 18:00 to Oct-18 @ 06:00
TAF SBYS 171600Z 1718/1806 35008KT 9999 SCT040 FEW045TCU TX26/1718Z TN20/1805Z
Wind Visibility Clouds
350° at 8 knots 10,000+ meters
  • Scattered at 4,000' AGL
  • Few at 4,500' AGL
Becoming Oct-17 @ 18:00 to Oct-17 @ 21:00
BECMG 1718/1720 TS SCT036 FEW045CB
Wind Visibility Clouds Conditions
350° at 8 knots 10,000+ meters
  • Scattered at 3,600' AGL
  • Few at 4,500' AGL
  • Thunderstorm
Becoming Oct-17 @ 21:00 to Oct-18 @ 00:00
BECMG 1721/1723 18007KT 8000 TSRA SCT032 FEW040CB
Wind Visibility Clouds Conditions
180° at 7 knots 7,998 meters
  • Scattered at 3,200' AGL
  • Few at 4,000' AGL
  • Thunderstorm
  • Rain
Becoming Oct-18 @ 00:00 to Oct-18 @ 03:00
BECMG 1800/1802 9999 NSW FEW040
Wind Visibility Clouds Conditions
180° at 7 knots 10,000+ meters
  • Few at 4,000' AGL
Becoming Oct-18 @ 03:00 to Oct-18 @ 06:00
BECMG 1803/1805 01005KT CAVOK RMK PDL
Wind Visibility Clouds Conditions
10° at 5 knots 10,000+ meters
  • No significant clouds
TAF SBYS 171600Z 1718/1806 35008KT 9999 SCT040 FEW045TCU TX26/1718Z TN20/1805Z BECMG 1718/1720 TS SCT036 FEW045CB BECMG 1721/1723 18007KT 8000 TSRA SCT032 FEW040CB BECMG 1800/1802 9999 NSW FEW040 BECMG 1803/1805 01005KT CAVOK RMK PDL
Issued Oct-17 @ 16:00 UTC
(4 hours ago)
Valid From Oct-17 @ 18:00 UTC
(2 hours ago)
Valid To Oct-18 @ 06:00 UTC
(in 10 hours)
Oct-17 @ 18:00 - Oct-18 @ 06:00
Wind Visibility
350° at 8 knots 10,000+ meters
Clouds
  • Scattered at 4,000' AGL
  • Few at 4,500' AGL
Becoming Oct-17 @ 18:00 - Oct-17 @ 21:00
Wind Visibility
350° at 8 knots 10,000+ meters
Clouds
  • Scattered at 3,600' AGL
  • Few at 4,500' AGL
Conditions
  • Thunderstorm
Becoming Oct-17 @ 21:00 - Oct-18 @ 00:00
Wind Visibility
180° at 7 knots 7,998 meters
Clouds
  • Scattered at 3,200' AGL
  • Few at 4,000' AGL
Conditions
  • Thunderstorm
  • Rain
Becoming Oct-18 @ 00:00 - Oct-18 @ 03:00
Wind Visibility
180° at 7 knots 10,000+ meters
Clouds
  • Few at 4,000' AGL
Conditions
Becoming Oct-18 @ 03:00 - Oct-18 @ 06:00
Wind Visibility
10° at 5 knots 10,000+ meters
Clouds
  • No significant clouds
Conditions